Startpagina
METAR-TAF:

METAR-TAF

Vliegvelden :

Luchthaven Libreville Internationaal

Libreville, Gabon

breedte: 00-27N, lengte: 009-25E, hoogte: 12 m

Actueel weer

Dit bericht is 35 minuten geleden gemaakt, om 13:30 UTC
Wind 8 kt uit het westzuidwesten
Temperatuur 31°C
Vochtigheid 71%
Druk 1009 hPa
Zicht 10 km of meer
Weinig wolken op 1600 ft

METAR: FOOL 261330Z 24008KT 9999 FEW016 31/25 Q1009 NOSIG

Tijdstip: 15:05 (14:05 UTC)

Verwachting

Dit bericht is 3 uur en het 5 minuten geleden gemaakt, om 11:00 UTC
Verwachting geldig van 26 om 12 UTC tot 27 om 18 UTC
Wind 8 kt uit het zuidwesten
Zicht 10 km of meer
Verspreide wolken op 1200 ft
Weinig wolken op 2000 ft, Cumulonimbus.
Gebroken wolken op 3000 ft
Kans 30% :
Tijdelijke
van 26 om 18 UTC tot 26 om 24 UTC
onweer

TAF: FOOL 261100Z 2612/2718 22008KT 9999 SCT012 FEW020CB BKN030 PROB30 TEMPO 2618/2624 TS

Waarnemingen en weersverwachtingen van meer dan 4000 vliegvelden (METAR en TAF).

De beschikbare stations zijn de gele en rode punten op de kaart.

Ga met uw muis naar het station om de naam te zien.

Klik dan om waarnemingen en weersverwachtingen te zien.

kaart wijzigen: klik op de groene knoppen met een zwart kruis om in te zoomen, op de groene knop met een streepje om uit te zoomen of op de groene pijlen voor aangrenzende kaarten.


METAR-TAF: